Time;durP1;ratioP1;P1;durP2;ratioP2;P2;SDS_P1;SDS_P2;PMS_P1;PMS_P2;Temp;Humidity;BMP_temperature;BMP_pressure;BME280_temperature;BME280_humidity;BME280_pressure;Samples;Min_cycle;Max_cycle;Signal;HPM_P1;HPM_P2
2022/08/16 00:00:17;;;;;;;12.35;8.52;;;19.90;97.30;;;;;;5018291;28;20116;-95
2022/08/16 00:02:43;;;;;;;11.60;8.75;;;19.90;97.50;;;;;;5016465;28;20050;-95
2022/08/16 00:05:11;;;;;;;9.68;8.68;;;19.80;97.60;;;;;;4998305;28;20044;-96
2022/08/16 00:07:37;;;;;;;10.27;8.43;;;19.80;97.80;;;;;;4999340;28;20026;-95
2022/08/16 00:10:06;;;;;;;10.30;8.18;;;19.80;98.00;;;;;;4996325;28;20019;-96
2022/08/16 00:12:32;;;;;;;11.90;9.00;;;19.80;98.20;;;;;;4999617;28;20033;-95
2022/08/16 00:15:00;;;;;;;12.15;9.55;;;19.70;98.30;;;;;;4999213;28;20048;-95
2022/08/16 00:17:26;;;;;;;13.63;8.80;;;19.70;98.40;;;;;;5000301;28;20022;-94
2022/08/16 00:19:53;;;;;;;13.15;9.05;;;19.70;98.50;;;;;;4998521;28;20096;-95
2022/08/16 00:22:18;;;;;;;13.48;9.13;;;19.60;98.60;;;;;;4998708;28;20030;-95
2022/08/16 00:24:44;;;;;;;11.38;8.55;;;19.60;98.80;;;;;;5002585;28;20029;-95
2022/08/16 00:27:10;;;;;;;12.90;9.48;;;19.60;98.90;;;;;;5000580;28;20469;-96
2022/08/16 00:29:35;;;;;;;13.93;9.45;;;19.50;99.00;;;;;;4997849;28;20117;-95
2022/08/16 00:32:03;;;;;;;9.75;8.40;;;19.50;99.20;;;;;;4999264;28;20022;-95
2022/08/16 00:34:29;;;;;;;11.15;8.85;;;19.50;99.30;;;;;;4998567;28;20117;-95
2022/08/16 00:36:55;;;;;;;11.65;9.15;;;19.50;99.50;;;;;;4997604;28;20049;-95
2022/08/16 00:39:20;;;;;;;13.07;9.38;;;19.40;99.60;;;;;;4996351;28;20025;-95
2022/08/16 00:41:48;;;;;;;12.40;9.38;;;19.40;99.70;;;;;;4998796;28;20025;-94
2022/08/16 00:44:17;;;;;;;14.60;9.60;;;19.30;99.80;;;;;;5016757;28;20115;-94
2022/08/16 00:46:50;;;;;;;12.93;10.60;;;19.30;99.90;;;;;;5002657;28;20037;-95
2022/08/16 00:49:15;;;;;;;11.27;9.65;;;19.30;99.90;;;;;;4998116;28;20061;-95
2022/08/16 00:51:41;;;;;;;12.95;10.60;;;19.20;99.90;;;;;;4999351;28;20029;-94
2022/08/16 00:54:07;;;;;;;13.13;10.02;;;19.20;99.90;;;;;;4999314;28;20083;-95
2022/08/16 00:56:36;;;;;;;11.00;8.90;;;19.20;99.90;;;;;;4999736;28;20429;-95
2022/08/16 00:59:04;;;;;;;11.25;9.65;;;19.20;99.90;;;;;;4997580;28;20030;-95
2022/08/16 01:01:31;;;;;;;13.60;10.20;;;19.10;99.90;;;;;;5001098;28;20054;-95
2022/08/16 01:03:58;;;;;;;14.23;10.32;;;19.10;99.90;;;;;;5018138;28;20052;-95
2022/08/16 01:06:24;;;;;;;10.93;9.82;;;19.00;99.90;;;;;;5014618;28;20026;-95
2022/08/16 01:08:53;;;;;;;12.90;9.88;;;19.00;99.90;;;;;;5017639;28;20037;-95
2022/08/16 01:11:19;;;;;;;13.52;10.43;;;19.00;99.90;;;;;;5011466;28;20029;-95
2022/08/16 01:13:45;;;;;;;14.20;11.73;;;19.00;99.90;;;;;;5016425;28;20067;-96
2022/08/16 01:16:27;;;;;;;14.65;10.40;;;18.90;99.90;;;;;;5021293;28;20029;-94
2022/08/16 01:19:00;;;;;;;12.93;11.45;;;18.90;99.90;;;;;;5016138;28;20044;-94
2022/08/16 01:21:56;;;;;;;11.98;10.77;;;18.90;99.90;;;;;;5017759;28;20026;-94
2022/08/16 01:24:38;;;;;;;13.32;10.85;;;18.90;99.90;;;;;;5036254;28;20025;-94
2022/08/16 01:27:12;;;;;;;15.27;12.40;;;18.80;99.90;;;;;;5011519;28;20029;-95
2022/08/16 01:29:55;;;;;;;18.30;12.25;;;18.80;99.90;;;;;;5014373;28;20049;-94
2022/08/16 01:32:20;;;;;;;12.77;10.90;;;18.90;99.90;;;;;;5024703;28;20033;-93
2022/08/16 01:34:46;;;;;;;18.52;12.77;;;18.80;99.90;;;;;;5018489;28;20041;-94
2022/08/16 01:37:13;;;;;;;16.20;12.80;;;18.80;99.90;;;;;;5033938;28;20045;-95
2022/08/16 01:39:40;;;;;;;18.17;14.00;;;18.70;99.90;;;;;;5016757;28;20079;-95
2022/08/16 01:42:07;;;;;;;14.98;13.43;;;18.70;99.90;;;;;;5017813;28;20030;-94
2022/08/16 01:44:34;;;;;;;18.02;13.82;;;18.70;99.90;;;;;;5020062;28;20080;-95
2022/08/16 01:46:59;;;;;;;18.33;13.82;;;18.60;99.90;;;;;;5012466;28;20456;-94
2022/08/16 01:49:31;;;;;;;18.17;12.93;;;18.60;99.90;;;;;;5018000;28;20033;-95
2022/08/16 01:52:01;;;;;;;15.05;12.75;;;18.60;99.90;;;;;;5017392;28;20025;-95
2022/08/16 01:54:28;;;;;;;17.52;12.88;;;18.50;99.90;;;;;;5014952;28;20105;-95
2022/08/16 01:56:53;;;;;;;15.55;12.52;;;18.50;99.90;;;;;;5024655;28;20029;-95
2022/08/16 01:59:20;;;;;;;17.30;13.90;;;18.50;99.90;;;;;;5017293;28;20036;-95
2022/08/16 02:01:49;;;;;;;19.38;14.73;;;18.40;99.90;;;;;;5017327;28;20060;-95
2022/08/16 02:04:15;;;;;;;21.40;15.20;;;18.30;99.90;;;;;;5018429;28;20044;-94
2022/08/16 02:06:41;;;;;;;20.88;15.68;;;18.30;99.90;;;;;;5016558;28;20017;-95
2022/08/16 02:09:08;;;;;;;21.20;16.55;;;18.30;99.90;;;;;;5018035;28;20071;-95
2022/08/16 02:11:35;;;;;;;22.45;15.32;;;18.30;99.90;;;;;;5017507;28;20017;-95
2022/08/16 02:14:00;;;;;;;19.92;15.73;;;18.30;99.90;;;;;;5007150;28;20092;-95
2022/08/16 02:16:26;;;;;;;21.83;16.20;;;18.20;99.90;;;;;;5028610;28;20053;-95
2022/08/16 02:18:52;;;;;;;22.35;16.10;;;18.20;99.90;;;;;;5034091;28;20029;-95
2022/08/16 02:21:18;;;;;;;22.90;17.05;;;18.20;99.90;;;;;;5030034;28;20080;-94
2022/08/16 02:23:44;;;;;;;20.20;16.48;;;18.20;99.90;;;;;;5017596;28;20079;-95
2022/08/16 02:26:11;;;;;;;22.33;16.85;;;18.20;99.90;;;;;;5004936;28;20128;-94
2022/08/16 02:28:37;;;;;;;21.60;16.45;;;18.20;99.90;;;;;;5014474;28;20481;-95
2022/08/16 02:31:07;;;;;;;23.40;17.83;;;18.20;99.90;;;;;;5013781;28;20034;-95
2022/08/16 02:33:33;;;;;;;22.63;17.45;;;18.20;99.90;;;;;;5033424;28;20481;-95
2022/08/16 02:35:59;;;;;;;25.80;19.92;;;18.10;99.90;;;;;;5029897;28;20067;-94
2022/08/16 02:38:26;;;;;;;23.42;17.20;;;18.20;99.90;;;;;;5024570;28;20453;-95
2022/08/16 02:40:52;;;;;;;19.95;16.80;;;18.20;99.90;;;;;;5018319;28;20125;-95
2022/08/16 02:43:17;;;;;;;20.35;17.27;;;18.10;99.90;;;;;;5018448;28;20053;-94
2022/08/16 02:45:43;;;;;;;24.60;18.20;;;18.20;99.90;;;;;;5018630;28;20026;-93
2022/08/16 02:48:09;;;;;;;20.30;17.65;;;18.10;99.90;;;;;;5020583;28;20029;-94
2022/08/16 02:50:35;;;;;;;19.65;16.80;;;18.20;99.90;;;;;;5021753;28;20068;-95
2022/08/16 02:53:00;;;;;;;20.77;17.40;;;18.10;99.90;;;;;;5020268;28;20025;-95
2022/08/16 02:55:26;;;;;;;21.88;18.50;;;18.10;99.90;;;;;;5018151;28;20041;-94
2022/08/16 02:57:51;;;;;;;21.02;17.42;;;18.20;99.90;;;;;;5018808;28;20045;-95
2022/08/16 03:00:18;;;;;;;20.98;17.55;;;18.10;99.90;;;;;;5017581;28;20083;-94
2022/08/16 03:02:44;;;;;;;23.33;18.40;;;18.10;99.90;;;;;;5023448;28;20045;-93
2022/08/16 03:05:11;;;;;;;24.75;18.77;;;18.10;99.90;;;;;;5021159;28;20082;-95
2022/08/16 03:07:37;;;;;;;22.65;18.20;;;18.10;99.90;;;;;;5018128;28;20380;-95
2022/08/16 03:10:05;;;;;;;21.27;18.48;;;18.00;99.90;;;;;;5017573;28;20207;-94
2022/08/16 03:12:31;;;;;;;23.27;19.38;;;18.00;99.90;;;;;;5016267;28;20018;-95
2022/08/16 03:14:56;;;;;;;24.92;19.48;;;18.00;99.90;;;;;;5012610;28;20466;-94
2022/08/16 03:17:22;;;;;;;26.38;20.42;;;17.90;99.90;;;;;;5034085;28;20033;-95
2022/08/16 03:19:49;;;;;;;22.95;18.90;;;17.90;99.90;;;;;;5036970;28;20049;-94
2022/08/16 03:22:15;;;;;;;28.13;19.52;;;17.90;99.90;;;;;;5020510;28;20022;-94
2022/08/16 03:24:40;;;;;;;26.23;19.23;;;17.80;99.90;;;;;;5019240;28;20026;-95
2022/08/16 03:27:07;;;;;;;23.45;18.75;;;17.80;99.90;;;;;;5019993;28;20510;-95
2022/08/16 03:29:33;;;;;;;27.58;21.67;;;17.80;99.90;;;;;;5035678;28;20460;-93
2022/08/16 03:32:00;;;;;;;25.60;20.98;;;17.70;99.90;;;;;;5019423;28;20026;-94
2022/08/16 03:34:26;;;;;;;28.88;20.10;;;17.70;99.90;;;;;;5019227;28;20040;-94
2022/08/16 03:36:52;;;;;;;25.85;20.67;;;17.70;99.90;;;;;;5017663;28;20396;-94
2022/08/16 03:39:18;;;;;;;28.02;21.55;;;17.60;99.90;;;;;;5018566;28;20037;-94
2022/08/16 03:41:43;;;;;;;28.85;20.30;;;17.60;99.90;;;;;;5016844;28;20026;-94
2022/08/16 03:44:09;;;;;;;26.10;21.35;;;17.60;99.90;;;;;;5020593;28;20120;-94
2022/08/16 03:46:34;;;;;;;27.10;20.48;;;17.50;99.90;;;;;;5019928;28;20385;-95
2022/08/16 03:49:00;;;;;;;25.27;20.90;;;17.50;99.90;;;;;;5037345;28;20033;-94
2022/08/16 03:51:26;;;;;;;25.77;21.45;;;17.50;99.90;;;;;;5010337;28;20017;-96
2022/08/16 03:53:52;;;;;;;25.58;20.65;;;17.50;99.90;;;;;;5017222;28;20136;-94
2022/08/16 03:56:17;;;;;;;26.70;21.60;;;17.50;99.90;;;;;;5027302;28;20025;-95
2022/08/16 03:58:43;;;;;;;26.20;20.42;;;17.50;99.90;;;;;;5019537;28;20040;-94
2022/08/16 04:01:09;;;;;;;27.40;21.02;;;17.50;99.90;;;;;;5017619;28;20029;-94
2022/08/16 04:03:35;;;;;;;25.42;21.42;;;17.50;99.90;;;;;;5015381;28;20085;-94
2022/08/16 04:06:01;;;;;;;24.20;21.42;;;17.40;99.90;;;;;;5016588;28;20026;-94
2022/08/16 04:08:26;;;;;;;26.55;20.85;;;17.40;99.90;;;;;;5016261;28;20036;-94
2022/08/16 04:10:53;;;;;;;30.33;21.55;;;17.40;99.90;;;;;;5012897;28;20076;-93
2022/08/16 04:13:20;;;;;;;27.35;20.58;;;17.40;99.90;;;;;;5014279;28;20033;-94
2022/08/16 04:15:46;;;;;;;22.75;19.90;;;17.40;99.90;;;;;;5014269;28;20548;-94
2022/08/16 04:18:12;;;;;;;28.08;20.60;;;17.40;99.90;;;;;;5014342;28;20072;-95
2022/08/16 04:20:38;;;;;;;27.67;21.33;;;17.40;99.90;;;;;;5014042;28;20030;-94
2022/08/16 04:23:04;;;;;;;24.38;20.80;;;17.40;99.90;;;;;;5020741;28;20025;-94
2022/08/16 04:25:29;;;;;;;25.17;21.02;;;17.40;99.90;;;;;;5011732;28;20040;-94
2022/08/16 04:27:55;;;;;;;27.27;21.27;;;17.40;99.90;;;;;;5013225;28;20030;-94
2022/08/16 04:30:21;;;;;;;28.23;21.08;;;17.40;99.90;;;;;;5012588;28;20030;-93
2022/08/16 04:32:47;;;;;;;26.80;20.55;;;17.40;99.90;;;;;;5016501;28;20406;-93
2022/08/16 04:35:17;;;;;;;26.05;22.20;;;17.40;99.90;;;;;;5030257;28;21141;-96
2022/08/16 04:37:48;;;;;;;26.23;21.45;;;17.40;99.90;;;;;;5014930;28;20030;-94
2022/08/16 04:40:15;;;;;;;27.13;21.73;;;17.30;99.90;;;;;;5017284;28;20025;-94
2022/08/16 04:42:41;;;;;;;26.38;21.40;;;17.40;99.90;;;;;;5013693;28;20029;-93
2022/08/16 04:45:09;;;;;;;27.88;21.98;;;17.40;99.90;;;;;;5015059;28;20502;-94
2022/08/16 04:47:35;;;;;;;27.35;21.02;;;17.40;99.90;;;;;;5008849;28;20022;-94
2022/08/16 04:50:28;;;;;;;28.98;21.10;;;17.40;99.90;;;;;;5013227;28;20033;-95
2022/08/16 04:52:56;;;;;;;28.23;20.35;;;17.40;99.90;;;;;;5009898;28;20037;-94
2022/08/16 04:55:24;;;;;;;28.10;20.40;;;17.40;99.90;;;;;;5015489;28;20044;-95
2022/08/16 04:57:52;;;;;;;29.40;21.58;;;17.40;99.90;;;;;;5012012;28;20084;-95
2022/08/16 05:00:23;;;;;;;29.02;21.77;;;17.40;99.90;;;;;;5010302;28;20037;-94
2022/08/16 05:02:51;;;;;;;28.77;21.80;;;17.50;99.90;;;;;;5009610;28;20045;-93
2022/08/16 05:05:17;;;;;;;28.33;21.35;;;17.50;99.90;;;;;;5014629;28;20037;-94
2022/08/16 05:07:43;;;;;;;28.60;21.38;;;17.50;99.90;;;;;;5014967;28;20037;-95
2022/08/16 05:10:09;;;;;;;29.35;20.90;;;17.50;99.90;;;;;;5015870;28;20018;-94
2022/08/16 05:12:35;;;;;;;29.40;22.15;;;17.60;99.90;;;;;;5010772;28;20034;-94
2022/08/16 05:15:04;;;;;;;27.42;22.73;;;17.60;99.90;;;;;;5029547;28;20063;-95
2022/08/16 05:17:30;;;;;;;25.95;21.75;;;17.60;99.90;;;;;;5015401;28;20026;-94
2022/08/16 05:19:56;;;;;;;25.98;21.20;;;17.60;99.90;;;;;;5015317;28;20026;-94
2022/08/16 05:22:22;;;;;;;27.13;21.02;;;17.70;99.90;;;;;;5014702;28;20030;-94
2022/08/16 05:24:48;;;;;;;29.85;23.52;;;17.70;99.90;;;;;;4999161;28;20053;-94
2022/08/16 05:27:14;;;;;;;24.63;21.27;;;17.70;99.90;;;;;;5009935;28;20026;-95
2022/08/16 05:29:39;;;;;;;31.70;23.40;;;17.80;99.90;;;;;;5030099;28;20034;-95
2022/08/16 05:32:05;;;;;;;29.02;22.80;;;17.90;99.90;;;;;;5013237;28;20037;-94
2022/08/16 05:34:31;;;;;;;26.38;21.55;;;17.90;99.90;;;;;;5015214;28;20037;-94
2022/08/16 05:36:57;;;;;;;24.33;21.70;;;18.00;99.90;;;;;;5015547;28;20045;-94
2022/08/16 05:39:24;;;;;;;28.17;22.38;;;18.10;99.90;;;;;;5015085;28;20032;-93
2022/08/16 05:41:51;;;;;;;30.30;23.02;;;18.10;99.90;;;;;;5016619;28;20034;-93
2022/08/16 05:44:18;;;;;;;30.67;23.42;;;18.30;99.90;;;;;;5013457;28;20025;-92
2022/08/16 05:46:44;;;;;;;29.15;24.75;;;18.30;99.90;;;;;;5013972;28;20359;-93
2022/08/16 05:49:15;;;;;;;33.70;26.60;;;18.40;99.90;;;;;;5001639;28;20100;-93
2022/08/16 05:51:42;;;;;;;31.58;25.27;;;18.50;99.90;;;;;;5009729;28;20061;-90
2022/08/16 05:54:13;;;;;;;33.85;25.50;;;18.60;99.90;;;;;;5007843;28;20038;-90
2022/08/16 05:56:40;;;;;;;31.13;25.75;;;18.70;99.90;;;;;;5010521;28;20041;-93
2022/08/16 05:59:06;;;;;;;32.17;26.05;;;18.80;99.90;;;;;;5012616;28;20482;-93
2022/08/16 06:01:34;;;;;;;28.95;25.73;;;18.90;99.90;;;;;;5015935;28;20390;-93
2022/08/16 06:03:59;;;;;;;33.58;25.25;;;19.10;99.90;;;;;;5034056;28;20034;-94
2022/08/16 06:06:25;;;;;;;29.75;23.40;;;19.20;99.90;;;;;;5017092;28;20036;-92
2022/08/16 06:08:50;;;;;;;28.95;23.42;;;19.30;99.90;;;;;;5017466;28;20481;-93
2022/08/16 06:11:16;;;;;;;26.63;23.67;;;19.50;99.90;;;;;;5015403;28;20032;-91
2022/08/16 06:13:42;;;;;;;26.58;22.98;;;19.60;99.90;;;;;;5017065;28;20424;-92
2022/08/16 06:16:07;;;;;;;31.67;22.85;;;19.70;99.90;;;;;;5017687;28;20057;-92
2022/08/16 06:18:33;;;;;;;31.23;22.73;;;19.90;99.90;;;;;;5017762;28;20465;-92
2022/08/16 06:20:59;;;;;;;24.13;21.63;;;20.00;99.90;;;;;;5021955;28;20060;-93
2022/08/16 06:23:25;;;;;;;27.27;21.70;;;20.10;99.90;;;;;;5020484;28;20047;-93
2022/08/16 06:25:51;;;;;;;27.08;21.10;;;20.20;99.90;;;;;;5021802;28;20082;-93
2022/08/16 06:28:17;;;;;;;24.63;20.63;;;20.30;99.90;;;;;;5039107;28;20026;-93
2022/08/16 06:30:43;;;;;;;24.35;21.08;;;20.40;99.90;;;;;;5021105;28;20029;-92
2022/08/16 06:33:09;;;;;;;23.63;20.20;;;20.50;99.90;;;;;;5038051;28;20021;-92
2022/08/16 06:35:35;;;;;;;26.88;21.65;;;20.60;99.90;;;;;;5020807;28;20406;-93
2022/08/16 06:38:01;;;;;;;24.30;20.73;;;20.70;99.90;;;;;;5039253;28;20013;-93
2022/08/16 06:40:28;;;;;;;23.48;20.55;;;20.80;99.90;;;;;;5019113;28;20477;-92
2022/08/16 06:42:54;;;;;;;24.30;20.55;;;20.90;99.90;;;;;;5019034;28;20028;-93
2022/08/16 06:45:21;;;;;;;23.60;20.45;;;21.00;99.90;;;;;;5021163;28;20022;-92
2022/08/16 06:47:47;;;;;;;24.52;20.83;;;21.10;99.90;;;;;;5021104;28;20025;-93
2022/08/16 06:50:13;;;;;;;23.42;19.73;;;21.20;99.90;;;;;;5018093;28;20056;-93
2022/08/16 06:52:38;;;;;;;24.52;20.58;;;21.20;99.90;;;;;;5020460;28;20066;-93
2022/08/16 06:55:06;;;;;;;23.17;18.65;;;21.30;99.90;;;;;;5021492;28;20037;-93
2022/08/16 06:57:33;;;;;;;23.67;19.90;;;21.50;99.90;;;;;;5021038;28;20025;-93
2022/08/16 06:59:58;;;;;;;23.40;19.42;;;21.50;99.90;;;;;;5020167;28;20026;-92
2022/08/16 07:02:24;;;;;;;24.95;19.83;;;21.60;99.90;;;;;;5017226;28;20041;-91
2022/08/16 07:04:51;;;;;;;20.70;18.38;;;21.60;99.90;;;;;;5020708;28;20021;-92
2022/08/16 07:07:18;;;;;;;23.67;19.25;;;21.70;99.90;;;;;;5021005;28;20172;-92
2022/08/16 07:09:43;;;;;;;20.90;18.50;;;21.70;99.90;;;;;;5020505;28;20424;-93
2022/08/16 07:12:09;;;;;;;21.70;18.30;;;21.80;99.90;;;;;;5021041;28;20032;-92
2022/08/16 07:14:34;;;;;;;20.38;18.20;;;21.90;99.90;;;;;;5020734;28;20030;-91
2022/08/16 07:17:00;;;;;;;22.08;18.63;;;21.90;99.90;;;;;;5021716;28;20365;-93
2022/08/16 07:19:29;;;;;;;23.63;19.20;;;22.00;99.90;;;;;;5020573;28;20057;-91
2022/08/16 07:21:55;;;;;;;20.58;17.77;;;22.00;99.90;;;;;;5017242;28;20029;-93
2022/08/16 07:24:20;;;;;;;21.80;18.15;;;22.20;99.90;;;;;;5003216;28;20033;-93
2022/08/16 07:26:46;;;;;;;20.60;18.35;;;22.30;99.90;;;;;;5030691;28;20037;-92
2022/08/16 07:29:11;;;;;;;20.80;17.38;;;22.40;99.90;;;;;;5020489;28;20033;-93
2022/08/16 07:31:37;;;;;;;19.73;17.77;;;22.50;99.90;;;;;;5037568;28;20072;-92
2022/08/16 07:34:02;;;;;;;19.33;17.02;;;22.50;99.90;;;;;;5020801;28;20029;-93
2022/08/16 07:36:28;;;;;;;18.65;16.38;;;22.60;99.70;;;;;;5020527;28;20026;-93
2022/08/16 07:38:54;;;;;;;20.45;18.10;;;22.70;99.50;;;;;;5020345;28;20374;-92
2022/08/16 07:41:19;;;;;;;19.05;17.17;;;22.70;99.30;;;;;;5020231;28;20362;-93
2022/08/16 07:43:45;;;;;;;21.27;16.48;;;22.80;98.90;;;;;;5018819;28;20030;-94
2022/08/16 07:46:11;;;;;;;19.80;16.00;;;22.80;98.70;;;;;;5020564;28;20025;-92
2022/08/16 07:48:37;;;;;;;16.63;14.55;;;22.90;98.40;;;;;;5019605;28;20047;-92
2022/08/16 07:51:03;;;;;;;18.65;15.32;;;23.00;98.30;;;;;;5000990;28;20037;-92
2022/08/16 07:53:30;;;;;;;18.17;15.63;;;23.20;98.00;;;;;;5014386;28;20033;-93
2022/08/16 07:55:58;;;;;;;18.10;14.40;;;23.30;97.70;;;;;;5020023;28;20030;-92
2022/08/16 07:58:23;;;;;;;15.95;13.95;;;23.40;97.60;;;;;;5016669;28;20040;-93
2022/08/16 08:00:49;;;;;;;18.20;14.13;;;23.60;97.10;;;;;;5022741;28;20030;-93
2022/08/16 08:03:14;;;;;;;14.82;13.25;;;23.60;96.70;;;;;;5017760;28;20041;-93
2022/08/16 08:05:40;;;;;;;15.77;12.02;;;23.70;96.40;;;;;;5012928;28;20034;-92
2022/08/16 08:08:06;;;;;;;14.52;12.20;;;23.80;96.30;;;;;;5015350;28;20021;-93
2022/08/16 08:10:31;;;;;;;15.30;12.70;;;23.90;96.20;;;;;;5027153;28;20482;-93
2022/08/16 08:12:57;;;;;;;18.55;14.70;;;24.00;95.80;;;;;;5014203;28;20093;-93
2022/08/16 08:15:23;;;;;;;16.30;13.93;;;24.20;95.80;;;;;;5019033;28;20179;-93
2022/08/16 08:17:49;;;;;;;14.93;13.38;;;24.30;95.70;;;;;;5018917;28;20144;-94
2022/08/16 08:20:18;;;;;;;15.50;13.88;;;24.40;95.50;;;;;;5019126;28;20072;-94
2022/08/16 08:22:45;;;;;;;16.65;12.35;;;24.50;95.30;;;;;;5006001;28;20079;-93
2022/08/16 08:25:12;;;;;;;18.77;11.93;;;24.60;95.20;;;;;;5019890;28;20036;-93
2022/08/16 08:27:38;;;;;;;14.65;13.15;;;24.60;95.10;;;;;;5018959;28;20165;-93
2022/08/16 08:30:04;;;;;;;15.27;13.18;;;24.60;94.90;;;;;;5019829;28;20057;-93
2022/08/16 08:32:30;;;;;;;13.98;12.45;;;24.70;94.90;;;;;;5035899;28;20026;-93
2022/08/16 08:34:57;;;;;;;14.32;12.70;;;24.70;94.70;;;;;;5038075;28;20520;-94
2022/08/16 08:37:26;;;;;;;15.55;13.15;;;24.80;94.70;;;;;;5021528;28;20099;-93
2022/08/16 08:39:52;;;;;;;15.13;12.70;;;24.90;94.50;;;;;;5010973;28;20167;-94
2022/08/16 08:42:17;;;;;;;14.23;12.43;;;25.00;94.10;;;;;;5010794;28;20517;-93
2022/08/16 08:44:43;;;;;;;17.55;13.13;;;25.00;93.90;;;;;;5036561;28;20064;-93
2022/08/16 08:47:09;;;;;;;14.82;12.45;;;25.10;93.70;;;;;;4999095;28;20033;-92
2022/08/16 08:49:36;;;;;;;14.75;12.35;;;25.20;93.70;;;;;;5007508;28;20389;-92
2022/08/16 08:52:02;;;;;;;14.82;11.48;;;25.30;93.40;;;;;;5018732;28;20033;-92
2022/08/16 08:54:28;;;;;;;14.15;12.07;;;25.40;93.20;;;;;;5018225;28;20128;-91
2022/08/16 08:56:54;;;;;;;13.77;12.38;;;25.50;92.90;;;;;;5019228;28;20527;-94
2022/08/16 08:59:20;;;;;;;15.30;12.63;;;25.50;92.50;;;;;;5018457;28;20547;-95
2022/08/16 09:01:46;;;;;;;10.25;9.20;;;25.40;92.20;;;;;;5016438;28;20084;-93
2022/08/16 09:04:12;;;;;;;12.30;10.85;;;25.50;92.20;;;;;;5032512;28;20037;-92
2022/08/16 09:06:37;;;;;;;12.48;11.18;;;25.50;92.00;;;;;;5018410;28;20025;-91
2022/08/16 09:09:04;;;;;;;14.43;10.50;;;25.60;91.80;;;;;;5018258;28;20022;-92
2022/08/16 09:11:30;;;;;;;15.07;11.27;;;25.70;91.60;;;;;;5017734;28;20029;-93
2022/08/16 09:13:56;;;;;;;10.43;9.32;;;25.80;91.20;;;;;;5017852;28;20033;-91
2022/08/16 09:16:22;;;;;;;11.45;10.32;;;25.80;91.30;;;;;;5019034;28;20660;-91
2022/08/16 09:18:48;;;;;;;13.02;9.95;;;25.90;90.90;;;;;;5018049;28;20040;-91
2022/08/16 09:21:14;;;;;;;13.68;10.20;;;25.90;91.00;;;;;;5017561;28;20140;-90
2022/08/16 09:23:40;;;;;;;13.68;9.88;;;26.00;90.80;;;;;;5023291;28;20021;-89
2022/08/16 09:26:09;;;;;;;10.25;8.38;;;26.10;90.70;;;;;;5013760;28;20057;-91
2022/08/16 09:28:36;;;;;;;8.73;7.93;;;26.30;90.50;;;;;;5018018;28;20496;-90
2022/08/16 09:31:02;;;;;;;13.45;9.77;;;26.50;90.20;;;;;;5017668;28;20088;-90
2022/08/16 09:33:28;;;;;;;12.68;9.15;;;26.60;89.90;;;;;;5034487;28;20027;-91
2022/08/16 09:35:54;;;;;;;8.75;7.85;;;26.70;89.50;;;;;;5018499;28;20083;-91
2022/08/16 09:38:21;;;;;;;11.02;7.97;;;26.80;89.00;;;;;;5017988;28;20014;-91
2022/08/16 09:40:46;;;;;;;9.18;7.18;;;26.90;88.40;;;;;;5018191;28;20029;-91
2022/08/16 09:43:15;;;;;;;8.80;6.93;;;27.00;87.90;;;;;;5017303;28;20024;-91
2022/08/16 09:45:41;;;;;;;9.32;6.95;;;27.10;86.90;;;;;;5017456;28;20025;-92
2022/08/16 09:48:09;;;;;;;11.18;7.68;;;27.20;86.10;;;;;;5035717;28;20108;-90
2022/08/16 09:50:36;;;;;;;8.30;7.35;;;27.10;85.30;;;;;;5017707;28;20017;-92
2022/08/16 09:53:02;;;;;;;8.98;6.70;;;27.20;85.00;;;;;;5028693;28;20092;-92
2022/08/16 09:55:28;;;;;;;9.43;7.07;;;27.20;84.30;;;;;;5017146;28;20041;-90
2022/08/16 09:57:54;;;;;;;6.47;5.88;;;27.20;83.90;;;;;;5021778;28;20515;-91
2022/08/16 10:00:19;;;;;;;8.73;6.47;;;27.30;83.70;;;;;;5021452;28;20029;-91
2022/08/16 10:02:46;;;;;;;8.88;6.45;;;27.30;83.50;;;;;;5019931;28;20079;-89
2022/08/16 10:05:11;;;;;;;7.28;5.32;;;27.20;83.00;;;;;;5021300;28;20026;-91
2022/08/16 10:07:37;;;;;;;7.07;5.35;;;27.30;83.30;;;;;;5017486;28;20025;-92
2022/08/16 10:10:04;;;;;;;8.35;5.50;;;27.40;82.70;;;;;;5009290;28;20022;-92
2022/08/16 10:15:17;;;;;;;8.95;6.72;;;27.60;81.80;;;;;;5022927;28;20511;-93
2022/08/16 10:17:48;;;;;;;7.68;5.95;;;27.80;81.60;;;;;;5012655;28;20025;-91
2022/08/16 10:20:14;;;;;;;7.18;5.97;;;27.90;81.50;;;;;;5020892;28;20045;-89
2022/08/16 10:22:39;;;;;;;8.75;6.53;;;28.00;80.60;;;;;;5020110;28;20436;-90
2022/08/16 10:25:06;;;;;;;5.00;4.47;;;28.00;80.10;;;;;;5021160;28;20025;-89
2022/08/16 10:27:33;;;;;;;5.93;4.97;;;28.00;80.10;;;;;;5020697;28;20052;-92
2022/08/16 10:30:00;;;;;;;7.32;5.03;;;28.10;79.60;;;;;;5020897;28;20037;-90
2022/08/16 10:32:25;;;;;;;5.03;4.53;;;28.20;78.90;;;;;;5019686;28;20477;-90
2022/08/16 10:34:51;;;;;;;7.95;4.95;;;28.30;78.50;;;;;;5020977;28;20033;-94
2022/08/16 10:37:16;;;;;;;5.75;4.63;;;28.30;78.40;;;;;;5020807;28;20017;-89
2022/08/16 10:39:42;;;;;;;6.85;5.30;;;28.20;78.30;;;;;;5019771;28;20075;-89
2022/08/16 10:42:08;;;;;;;6.47;3.97;;;28.20;78.10;;;;;;5035046;28;20493;-90
2022/08/16 10:44:34;;;;;;;7.03;4.90;;;28.30;78.20;;;;;;5031968;28;20053;-89
2022/08/16 10:46:59;;;;;;;7.30;4.80;;;28.50;77.70;;;;;;5038271;28;20485;-90
2022/08/16 10:49:25;;;;;;;8.15;5.18;;;28.50;77.30;;;;;;5019746;28;20033;-90
2022/08/16 10:51:52;;;;;;;6.03;5.25;;;28.50;77.00;;;;;;5032897;28;20029;-92
2022/08/16 10:54:18;;;;;;;8.32;5.40;;;28.50;76.90;;;;;;5019537;28;20042;-92
2022/08/16 10:56:43;;;;;;;6.28;5.30;;;28.60;76.70;;;;;;5019014;28;20017;-90
2022/08/16 10:59:09;;;;;;;5.88;5.20;;;28.70;76.50;;;;;;5020076;28;20029;-91
2022/08/16 11:01:35;;;;;;;7.68;4.97;;;28.70;76.00;;;;;;5037497;28;20046;-91
2022/08/16 11:04:01;;;;;;;6.32;4.60;;;28.90;75.60;;;;;;5019244;28;20154;-89
2022/08/16 11:06:27;;;;;;;5.85;4.65;;;29.00;74.30;;;;;;5019865;28;20029;-91
2022/08/16 11:08:53;;;;;;;6.55;5.53;;;29.00;73.80;;;;;;5020058;28;20029;-92
2022/08/16 11:11:18;;;;;;;5.47;4.53;;;29.10;73.30;;;;;;5020504;28;20034;-91
2022/08/16 11:13:45;;;;;;;7.50;4.93;;;29.00;73.60;;;;;;5019505;28;20056;-93
2022/08/16 11:16:11;;;;;;;5.88;4.57;;;29.00;73.30;;;;;;5020360;28;20032;-91
2022/08/16 11:18:37;;;;;;;8.00;4.85;;;29.10;73.30;;;;;;5004200;28;20030;-93
2022/08/16 11:21:03;;;;;;;7.18;5.32;;;29.20;73.30;;;;;;5017964;28;20481;-91
2022/08/16 11:23:29;;;;;;;11.52;5.30;;;29.30;73.10;;;;;;5018866;28;20484;-91
2022/08/16 11:25:55;;;;;;;11.20;6.15;;;29.50;73.40;;;;;;5019485;28;20026;-91
2022/08/16 11:28:22;;;;;;;7.63;5.05;;;29.60;73.10;;;;;;5020230;28;20478;-92
2022/08/16 11:30:48;;;;;;;7.90;5.13;;;29.60;72.00;;;;;;5020274;28;20021;-91
2022/08/16 11:33:14;;;;;;;9.52;5.97;;;29.60;72.00;;;;;;5018802;28;20051;-90
2022/08/16 11:35:40;;;;;;;6.15;4.85;;;29.60;72.80;;;;;;5019679;28;20033;-93
2022/08/16 11:38:15;;;;;;;10.77;5.28;;;29.50;72.40;;;;;;5020338;28;20076;-92
2022/08/16 11:40:55;;;;;;;6.05;5.15;;;29.70;72.80;;;;;;5018849;28;20033;-90
2022/08/16 11:43:23;;;;;;;6.45;5.35;;;29.70;71.30;;;;;;5027032;28;20029;-90
2022/08/16 11:45:49;;;;;;;6.13;5.53;;;29.80;70.90;;;;;;5019994;28;20028;-90
2022/08/16 11:48:17;;;;;;;6.00;4.80;;;29.80;70.70;;;;;;5019470;28;20022;-91
2022/08/16 11:50:43;;;;;;;8.57;6.25;;;29.80;70.90;;;;;;5019501;28;20025;-91
2022/08/16 11:53:09;;;;;;;9.07;5.32;;;29.70;70.80;;;;;;5018131;28;20048;-91
2022/08/16 11:55:36;;;;;;;7.82;6.78;;;29.60;71.50;;;;;;5035489;28;20033;-91
2022/08/16 11:58:02;;;;;;;9.27;5.80;;;29.60;70.70;;;;;;5018304;28;20057;-91
2022/08/16 12:00:30;;;;;;;6.25;4.75;;;29.50;70.80;;;;;;5019502;28;20029;-91
2022/08/16 12:02:55;;;;;;;5.65;5.10;;;29.40;70.70;;;;;;5018644;28;20057;-91
2022/08/16 12:05:22;;;;;;;6.78;5.55;;;29.30;70.60;;;;;;5019721;28;20029;-91
2022/08/16 12:07:48;;;;;;;6.82;5.50;;;29.30;70.40;;;;;;5019436;28;20070;-93
2022/08/16 12:10:16;;;;;;;5.72;5.00;;;29.20;69.90;;;;;;5019419;28;20032;-93
2022/08/16 12:12:43;;;;;;;5.53;4.32;;;29.10;69.90;;;;;;5034958;28;20052;-92
2022/08/16 12:15:10;;;;;;;6.25;5.25;;;29.10;70.10;;;;;;5003209;28;20085;-90
2022/08/16 12:17:37;;;;;;;7.25;6.00;;;29.10;70.50;;;;;;5017339;28;20053;-92
2022/08/16 12:20:10;;;;;;;9.50;6.32;;;29.00;70.50;;;;;;5018398;28;20427;-92
2022/08/16 12:22:37;;;;;;;7.10;5.35;;;28.90;70.80;;;;;;5035427;28;20029;-90
2022/08/16 12:25:14;;;;;;;5.22;4.63;;;28.80;71.10;;;;;;5018584;28;20056;-90
2022/08/16 12:27:41;;;;;;;5.70;4.05;;;28.90;70.60;;;;;;5035185;28;20114;-90
2022/08/16 12:30:08;;;;;;;9.27;5.43;;;28.80;70.30;;;;;;5017319;28;20053;-90
2022/08/16 12:32:34;;;;;;;6.90;4.88;;;28.90;70.40;;;;;;5015380;28;20033;-90